createdAt,value
2022-12-01T00:00:01.783Z,19.13
2022-12-01T00:02:37.011Z,16.63
2022-12-01T00:05:06.002Z,16.80
2022-12-01T00:07:34.445Z,15.70
2022-12-01T00:10:23.275Z,15.20
2022-12-01T00:12:51.801Z,17.30
2022-12-01T00:15:20.535Z,12.90
2022-12-01T00:17:50.197Z,16.70
2022-12-01T00:20:19.228Z,17.83
2022-12-01T00:22:49.364Z,16.80
2022-12-01T00:25:20.722Z,14.50
2022-12-01T00:27:51.718Z,11.33
2022-12-01T00:30:21.712Z,13.10
2022-12-01T00:32:51.863Z,13.80
2022-12-01T00:35:20.433Z,14.53
2022-12-01T00:37:49.156Z,13.23
2022-12-01T00:40:19.083Z,15.87
2022-12-01T00:42:47.636Z,16.20
2022-12-01T00:45:16.072Z,14.07
2022-12-01T00:47:44.396Z,16.90
2022-12-01T00:50:13.451Z,13.33
2022-12-01T00:52:43.994Z,13.83
2022-12-01T00:55:14.342Z,18.07
2022-12-01T00:57:45.400Z,15.80
2022-12-01T01:00:17.158Z,15.70
2022-12-01T01:02:51.703Z,14.23
2022-12-01T01:05:22.416Z,14.80
2022-12-01T01:07:51.949Z,13.00
2022-12-01T01:10:20.524Z,14.70
2022-12-01T01:12:55.998Z,12.33
2022-12-01T01:15:24.555Z,13.23
2022-12-01T01:17:55.083Z,16.63
2022-12-01T01:20:23.443Z,13.60
2022-12-01T01:22:59.065Z,15.97
2022-12-01T01:25:34.302Z,16.70
2022-12-01T01:28:04.345Z,16.73
2022-12-01T01:30:32.837Z,16.63
2022-12-01T01:33:02.375Z,17.47
2022-12-01T01:35:31.115Z,16.90
2022-12-01T01:38:01.641Z,16.20
2022-12-01T01:40:30.212Z,15.70
2022-12-01T01:43:00.471Z,17.10
2022-12-01T01:45:31.490Z,19.63
2022-12-01T01:48:03.642Z,17.30
2022-12-01T01:50:34.025Z,19.33
2022-12-01T01:53:08.411Z,17.60
2022-12-01T01:55:37.797Z,18.27
2022-12-01T01:58:10.423Z,20.83
2022-12-01T02:00:44.659Z,17.43
2022-12-01T02:03:20.984Z,18.00
2022-12-01T02:05:50.854Z,15.10
2022-12-01T02:08:20.330Z,21.77
2022-12-01T02:11:12.479Z,21.00
2022-12-01T02:13:52.347Z,19.73
2022-12-01T02:16:31.560Z,18.00
2022-12-01T02:19:07.641Z,19.63
2022-12-01T02:21:50.040Z,21.70
2022-12-01T02:24:57.124Z,29.40
2022-12-01T02:27:52.691Z,20.17
2022-12-01T02:30:34.385Z,24.87
2022-12-01T02:33:11.519Z,27.67
2022-12-01T02:35:48.674Z,27.97
2022-12-01T02:38:25.494Z,26.23
2022-12-01T02:41:01.724Z,26.67
2022-12-01T02:43:36.249Z,29.07
2022-12-01T02:46:11.734Z,41.53
2022-12-01T02:48:42.977Z,29.57
2022-12-01T02:51:15.618Z,27.37
2022-12-01T02:53:45.434Z,28.50
2022-12-01T02:56:15.894Z,33.93
2022-12-01T02:58:45.163Z,27.80
2022-12-01T03:01:45.983Z,29.40
2022-12-01T03:04:32.761Z,34.40
2022-12-01T03:07:13.854Z,31.10
2022-12-01T03:09:50.903Z,33.20
2022-12-01T03:12:24.741Z,28.83
2022-12-01T03:15:01.592Z,31.33
2022-12-01T03:17:39.975Z,30.33
2022-12-01T03:20:15.970Z,32.17
2022-12-01T03:22:50.530Z,31.30
2022-12-01T03:25:21.202Z,29.90
2022-12-01T03:28:20.175Z,31.63
2022-12-01T03:30:46.330Z,27.23
2022-12-01T03:33:22.156Z,26.80
2022-12-01T03:35:54.608Z,33.23
2022-12-01T03:38:25.761Z,29.87
2022-12-01T03:40:59.898Z,31.50
2022-12-01T03:43:33.833Z,28.60
2022-12-01T03:46:09.475Z,30.47
2022-12-01T03:48:40.393Z,31.70
2022-12-01T03:51:15.106Z,27.33
2022-12-01T03:53:57.178Z,35.83
2022-12-01T03:56:30.569Z,33.20
2022-12-01T03:59:03.903Z,35.77
2022-12-01T04:01:33.473Z,38.83
2022-12-01T04:04:07.499Z,35.77
2022-12-01T04:06:37.163Z,38.50
2022-12-01T04:09:05.648Z,37.13
2022-12-01T04:11:51.387Z,33.83
2022-12-01T04:14:19.776Z,39.40
2022-12-01T04:16:48.513Z,39.20
2022-12-01T04:19:19.192Z,43.13
2022-12-01T04:21:48.542Z,40.17
2022-12-01T04:24:17.156Z,43.67
2022-12-01T04:26:47.076Z,41.50
2022-12-01T04:29:15.784Z,42.20
2022-12-01T04:31:45.161Z,43.80
2022-12-01T04:34:13.668Z,44.33
2022-12-01T04:36:43.392Z,46.93
2022-12-01T04:39:11.625Z,52.30
2022-12-01T04:41:40.871Z,55.40
2022-12-01T04:44:11.025Z,50.47
2022-12-01T04:46:40.382Z,56.93
2022-12-01T04:49:08.754Z,46.47
2022-12-01T04:51:37.539Z,55.47
2022-12-01T04:54:07.286Z,53.20
2022-12-01T04:56:35.679Z,54.10
2022-12-01T04:59:04.326Z,47.10
2022-12-01T05:01:33.046Z,51.63
2022-12-01T05:04:01.489Z,52.20
2022-12-01T05:06:30.522Z,53.97
2022-12-01T05:09:00.842Z,49.60
2022-12-01T05:11:31.783Z,54.77
2022-12-01T05:14:05.170Z,50.30
2022-12-01T05:16:35.526Z,49.63
2022-12-01T05:19:23.168Z,50.23
2022-12-01T05:21:53.996Z,56.17
2022-12-01T05:24:22.795Z,54.33
2022-12-01T05:26:53.433Z,52.50
2022-12-01T05:29:24.142Z,57.87
2022-12-01T05:31:53.462Z,54.07
2022-12-01T05:34:23.866Z,47.97
2022-12-01T05:36:55.166Z,58.70
2022-12-01T05:39:24.590Z,49.23
2022-12-01T05:41:54.453Z,52.10
2022-12-01T05:44:22.780Z,52.30
2022-12-01T05:46:58.367Z,53.80
2022-12-01T05:49:26.768Z,44.17
2022-12-01T05:51:56.224Z,55.77
2022-12-01T05:54:24.503Z,49.73
2022-12-01T05:56:54.229Z,45.30
2022-12-01T05:59:23.624Z,44.97
2022-12-01T06:01:55.171Z,44.10
2022-12-01T06:04:25.226Z,44.10
2022-12-01T06:06:55.670Z,43.93
2022-12-01T06:09:25.192Z,48.70
2022-12-01T06:11:57.507Z,45.87
2022-12-01T06:14:25.890Z,42.30
2022-12-01T06:16:54.182Z,42.90
2022-12-01T06:19:23.689Z,45.13
2022-12-01T06:21:53.965Z,40.73
2022-12-01T06:24:22.314Z,40.57
2022-12-01T06:26:50.908Z,42.97
2022-12-01T06:29:21.855Z,50.33
2022-12-01T06:31:50.130Z,50.77
2022-12-01T06:34:19.592Z,37.63
2022-12-01T06:36:49.066Z,42.50
2022-12-01T06:39:19.175Z,45.90
2022-12-01T06:41:47.829Z,48.13
2022-12-01T06:44:16.174Z,43.57
2022-12-01T06:46:45.904Z,44.53
2022-12-01T06:49:14.643Z,46.40
2022-12-01T06:51:43.917Z,47.53
2022-12-01T06:54:12.621Z,41.10
2022-12-01T06:56:42.845Z,39.20
2022-12-01T06:59:11.712Z,42.67
2022-12-01T07:01:40.300Z,42.77
2022-12-01T07:04:10.094Z,44.87
2022-12-01T07:06:38.420Z,41.40
2022-12-01T07:09:07.725Z,36.53
2022-12-01T07:11:36.886Z,37.37
2022-12-01T07:14:05.217Z,37.67
2022-12-01T07:16:33.799Z,36.60
2022-12-01T07:19:02.012Z,39.80
2022-12-01T07:21:32.717Z,37.53
2022-12-01T07:24:01.970Z,34.17
2022-12-01T07:26:30.301Z,41.70
2022-12-01T07:28:58.545Z,39.67
2022-12-01T07:31:27.018Z,35.77
2022-12-01T07:33:56.355Z,35.93
2022-12-01T07:36:26.111Z,47.03
2022-12-01T07:38:55.685Z,32.80
2022-12-01T07:41:24.443Z,38.00
2022-12-01T07:43:54.126Z,37.20
2022-12-01T07:46:26.505Z,36.80
2022-12-01T07:48:55.641Z,38.73
2022-12-01T07:51:25.402Z,37.93
2022-12-01T07:53:56.256Z,35.93
2022-12-01T07:56:24.922Z,35.93
2022-12-01T07:58:53.509Z,37.13
2022-12-01T08:01:23.328Z,36.57
2022-12-01T08:03:53.054Z,34.20
2022-12-01T08:06:22.363Z,31.20
2022-12-01T08:08:52.381Z,30.53
2022-12-01T08:11:24.767Z,37.20
2022-12-01T08:13:54.010Z,31.77
2022-12-01T08:16:25.457Z,36.83
2022-12-01T08:18:54.978Z,39.67
2022-12-01T08:21:25.043Z,35.03
2022-12-01T08:23:56.291Z,35.47
2022-12-01T08:26:27.905Z,30.87
2022-12-01T08:28:56.491Z,31.20
2022-12-01T08:31:27.110Z,29.80
2022-12-01T08:33:55.989Z,35.80
2022-12-01T08:36:25.360Z,34.13
2022-12-01T08:38:55.844Z,30.93
2022-12-01T08:41:28.453Z,35.63
2022-12-01T08:43:59.837Z,32.23
2022-12-01T08:46:30.384Z,30.70
2022-12-01T08:48:58.724Z,33.40
2022-12-01T08:51:27.779Z,31.73
2022-12-01T08:53:57.355Z,25.87
2022-12-01T08:56:33.741Z,24.87
2022-12-01T08:59:02.182Z,27.83
2022-12-01T09:01:30.724Z,24.77
2022-12-01T09:04:07.633Z,26.70
2022-12-01T09:06:40.681Z,21.50
2022-12-01T09:09:09.778Z,22.50
2022-12-01T09:11:41.210Z,22.43
2022-12-01T09:14:09.465Z,28.60
2022-12-01T09:16:38.929Z,21.73
2022-12-01T09:19:08.378Z,25.83
2022-12-01T09:21:45.225Z,25.80
2022-12-01T09:24:14.969Z,30.40
2022-12-01T09:26:44.702Z,24.07
2022-12-01T09:29:17.171Z,30.50
2022-12-01T09:31:48.869Z,28.87
2022-12-01T09:34:20.843Z,27.87
2022-12-01T09:36:50.249Z,27.53
2022-12-01T09:39:21.603Z,27.43
2022-12-01T09:41:59.104Z,28.77
2022-12-01T09:44:35.185Z,26.90
2022-12-01T09:47:10.353Z,24.53
2022-12-01T09:49:48.585Z,26.10
2022-12-01T09:52:21.939Z,27.80
2022-12-01T09:54:59.145Z,25.80
2022-12-01T09:57:33.711Z,30.30
2022-12-01T10:00:05.959Z,33.83
2022-12-01T10:02:41.047Z,23.10
2022-12-01T10:05:15.498Z,22.67
2022-12-01T10:07:48.341Z,25.73
2022-12-01T10:10:27.385Z,21.60
2022-12-01T10:12:58.727Z,24.13
2022-12-01T10:15:43.457Z,25.80
2022-12-01T10:18:31.365Z,24.20
2022-12-01T10:21:08.663Z,28.63
2022-12-01T10:23:57.704Z,24.90
2022-12-01T10:26:33.067Z,19.43
2022-12-01T10:29:24.475Z,22.97
2022-12-01T10:31:57.752Z,24.37
2022-12-01T10:34:29.672Z,20.83
2022-12-01T10:36:59.135Z,19.60
2022-12-01T10:39:32.414Z,21.97
2022-12-01T10:42:06.335Z,23.80
2022-12-01T10:44:38.156Z,22.80
2022-12-01T10:47:18.163Z,19.00
2022-12-01T10:49:46.695Z,23.03
2022-12-01T10:52:33.328Z,15.80
2022-12-01T10:55:06.538Z,16.77
2022-12-01T10:57:34.923Z,13.27
2022-12-01T11:00:09.322Z,14.40
2022-12-01T11:02:37.839Z,12.50
2022-12-01T11:05:08.542Z,12.17
2022-12-01T11:07:44.082Z,12.73
2022-12-01T11:10:18.798Z,13.77
2022-12-01T11:12:56.380Z,11.90
2022-12-01T11:15:28.570Z,11.13
2022-12-01T11:18:01.356Z,12.23
2022-12-01T11:20:33.345Z,9.70
2022-12-01T11:23:25.362Z,11.20
2022-12-01T11:26:00.952Z,10.70
2022-12-01T11:28:30.082Z,12.47
2022-12-01T11:31:05.575Z,13.47
2022-12-01T11:33:40.665Z,14.13
2022-12-01T11:36:15.946Z,11.40
2022-12-01T11:38:44.799Z,13.67
2022-12-01T11:41:28.032Z,14.87
2022-12-01T11:44:01.750Z,11.50
2022-12-01T11:46:35.049Z,9.77
2022-12-01T11:49:04.873Z,13.77
2022-12-01T11:51:37.609Z,14.30
2022-12-01T11:54:12.267Z,14.00
2022-12-01T11:56:42.267Z,14.47
2022-12-01T11:59:15.438Z,12.20
2022-12-01T12:02:07.571Z,14.37
2022-12-01T12:04:57.307Z,14.00
2022-12-01T12:07:37.077Z,10.47
2022-12-01T12:10:29.291Z,16.10
2022-12-01T12:13:23.090Z,16.20
2022-12-01T12:16:04.624Z,16.70
2022-12-01T12:18:50.734Z,18.17
2022-12-01T12:21:30.662Z,18.03
2022-12-01T12:24:15.682Z,24.13
2022-12-01T12:26:53.039Z,20.60
2022-12-01T12:29:34.185Z,20.60
2022-12-01T12:32:17.551Z,22.47
2022-12-01T12:34:57.303Z,20.03
2022-12-01T12:37:38.051Z,20.33
2022-12-01T12:40:27.587Z,21.43
2022-12-01T12:43:06.758Z,17.13
2022-12-01T12:45:49.954Z,24.37
2022-12-01T12:48:28.104Z,20.27
2022-12-01T12:51:09.383Z,23.70
2022-12-01T12:53:44.438Z,20.23
2022-12-01T12:56:16.463Z,26.03
2022-12-01T12:59:02.814Z,26.13
2022-12-01T13:01:36.831Z,27.67
2022-12-01T13:04:08.674Z,29.43
2022-12-01T13:06:42.803Z,28.73
2022-12-01T13:09:16.495Z,30.63
2022-12-01T13:11:52.782Z,31.57
2022-12-01T13:14:27.263Z,29.73
2022-12-01T13:17:00.527Z,31.93
2022-12-01T13:19:33.129Z,29.33
2022-12-01T13:22:05.489Z,28.00
2022-12-01T13:24:34.273Z,29.03
2022-12-01T13:27:07.036Z,33.77
2022-12-01T13:29:47.622Z,31.77
2022-12-01T13:32:33.820Z,30.93
2022-12-01T13:35:07.051Z,33.23
2022-12-01T13:37:39.299Z,27.23
2022-12-01T13:40:20.563Z,31.23
2022-12-01T13:42:58.301Z,32.00
2022-12-01T13:45:26.536Z,27.87
2022-12-01T13:47:56.902Z,30.37
2022-12-01T13:51:03.910Z,33.37
2022-12-01T13:53:36.017Z,28.33
2022-12-01T13:56:27.264Z,31.97
2022-12-01T13:58:56.965Z,33.17
2022-12-01T14:01:48.374Z,28.10
2022-12-01T14:04:33.850Z,33.70
2022-12-01T14:07:36.487Z,35.40
2022-12-01T14:10:24.253Z,33.07
2022-12-01T14:12:55.339Z,35.53
2022-12-01T14:15:34.036Z,31.43
2022-12-01T14:18:06.506Z,32.20
2022-12-01T14:20:45.936Z,30.63
2022-12-01T14:23:19.015Z,33.30
2022-12-01T14:26:04.781Z,33.87
2022-12-01T14:29:11.724Z,35.37
2022-12-01T14:32:25.817Z,33.47
2022-12-01T14:35:04.922Z,31.57
2022-12-01T14:37:49.791Z,29.60
2022-12-01T14:40:29.617Z,27.77
2022-12-01T14:43:19.882Z,31.57
2022-12-01T14:46:02.516Z,29.47
2022-12-01T14:48:38.736Z,34.93
2022-12-01T14:51:17.398Z,32.77
2022-12-01T14:53:53.156Z,30.90
2022-12-01T14:56:25.087Z,31.70
2022-12-01T14:58:59.202Z,33.63
2022-12-01T15:01:33.348Z,29.57
2022-12-01T15:04:04.775Z,29.60
2022-12-01T15:06:35.754Z,29.33
2022-12-01T15:09:32.675Z,31.03
2022-12-01T15:12:00.737Z,34.80
2022-12-01T15:14:35.316Z,32.13
2022-12-01T15:17:08.762Z,34.73
2022-12-01T15:19:39.886Z,40.00
2022-12-01T15:22:15.705Z,37.50
2022-12-01T15:24:46.556Z,37.67
2022-12-01T15:27:26.993Z,32.33
2022-12-01T15:29:58.193Z,35.20
2022-12-01T15:32:27.849Z,34.33
2022-12-01T15:35:01.554Z,28.70
2022-12-01T15:37:36.158Z,32.67
2022-12-01T15:40:54.457Z,30.07
2022-12-01T15:43:15.403Z,30.40
2022-12-01T15:45:51.781Z,26.47
2022-12-01T15:48:28.375Z,24.83
2022-12-01T15:51:10.342Z,26.30
2022-12-01T15:53:42.612Z,23.97
2022-12-01T15:56:13.269Z,22.67
2022-12-01T15:58:47.653Z,20.97
2022-12-01T16:01:19.464Z,22.97
2022-12-01T16:03:57.207Z,22.20
2022-12-01T16:06:35.270Z,22.50
2022-12-01T16:09:07.585Z,21.77
2022-12-01T16:11:36.205Z,22.80
2022-12-01T16:14:08.129Z,23.47
2022-12-01T16:16:43.318Z,22.10
2022-12-01T16:19:33.649Z,23.40
2022-12-01T16:22:13.743Z,23.03
2022-12-01T16:24:47.435Z,24.53
2022-12-01T16:27:23.325Z,25.80
2022-12-01T16:30:01.000Z,31.90
2022-12-01T16:33:01.988Z,27.10
2022-12-01T16:35:43.108Z,27.83
2022-12-01T16:38:22.450Z,31.23
2022-12-01T16:40:53.676Z,33.30
2022-12-01T16:43:24.046Z,31.70
2022-12-01T16:46:00.462Z,30.27
2022-12-01T16:48:30.320Z,28.47
2022-12-01T16:51:04.454Z,29.27
2022-12-01T16:53:32.947Z,33.70
2022-12-01T16:56:03.471Z,28.43
2022-12-01T16:58:31.846Z,32.23
2022-12-01T17:01:00.636Z,32.00
2022-12-01T17:03:31.319Z,30.40
2022-12-01T17:06:01.755Z,31.37
2022-12-01T17:08:30.445Z,32.37
2022-12-01T17:10:59.062Z,28.63
2022-12-01T17:13:28.826Z,32.23
2022-12-01T17:15:59.568Z,29.07
2022-12-01T17:18:32.860Z,31.77
2022-12-01T17:21:02.958Z,32.13
2022-12-01T17:23:32.687Z,31.03
2022-12-01T17:26:01.641Z,30.03
2022-12-01T17:28:29.944Z,30.93
2022-12-01T17:31:01.228Z,32.53
2022-12-01T17:33:29.526Z,30.00
2022-12-01T17:36:02.835Z,30.73
2022-12-01T17:38:35.071Z,30.53
2022-12-01T17:41:06.165Z,31.93
2022-12-01T17:43:36.111Z,31.40
2022-12-01T17:46:06.818Z,34.07
2022-12-01T17:48:37.414Z,32.03
2022-12-01T17:51:09.288Z,32.90
2022-12-01T17:53:39.337Z,34.07
2022-12-01T17:56:09.180Z,32.57
2022-12-01T17:58:38.568Z,31.60
2022-12-01T18:01:13.347Z,31.77
2022-12-01T18:03:42.818Z,32.63
2022-12-01T18:06:13.130Z,31.70
2022-12-01T18:08:43.114Z,34.67
2022-12-01T18:11:17.305Z,32.77
2022-12-01T18:13:49.772Z,34.33
2022-12-01T18:16:21.203Z,34.80
2022-12-01T18:18:49.960Z,31.90
2022-12-01T18:21:23.579Z,30.57
2022-12-01T18:23:52.977Z,29.10
2022-12-01T18:26:22.457Z,37.00
2022-12-01T18:28:55.946Z,33.30
2022-12-01T18:31:26.326Z,36.53
2022-12-01T18:33:58.383Z,38.97
2022-12-01T18:36:28.271Z,43.10
2022-12-01T18:39:00.025Z,39.93
2022-12-01T18:41:30.237Z,40.37
2022-12-01T18:43:58.596Z,38.90
2022-12-01T18:46:33.019Z,42.67
2022-12-01T18:49:02.747Z,38.53
2022-12-01T18:51:35.259Z,39.63
2022-12-01T18:54:05.180Z,35.30
2022-12-01T18:56:34.000Z,38.63
2022-12-01T18:59:06.229Z,41.40
2022-12-01T19:01:37.416Z,40.67
2022-12-01T19:04:07.547Z,40.90
2022-12-01T19:06:39.558Z,40.37
2022-12-01T19:09:10.636Z,40.33
2022-12-01T19:11:41.471Z,38.60
2022-12-01T19:14:13.165Z,41.70
2022-12-01T19:16:41.972Z,41.13
2022-12-01T19:19:11.188Z,39.70
2022-12-01T19:21:41.029Z,39.87
2022-12-01T19:24:11.401Z,36.80
2022-12-01T19:26:39.872Z,38.27
2022-12-01T19:29:08.382Z,38.53
2022-12-01T19:31:37.455Z,40.10
2022-12-01T19:34:08.262Z,40.30
2022-12-01T19:36:37.614Z,41.33
2022-12-01T19:39:07.944Z,40.17
2022-12-01T19:41:36.631Z,37.30
2022-12-01T19:44:08.410Z,31.37
2022-12-01T19:46:37.319Z,34.40
2022-12-01T19:49:06.973Z,32.97
2022-12-01T19:51:37.705Z,28.63
2022-12-01T19:54:11.598Z,32.80
2022-12-01T19:56:41.913Z,32.83
2022-12-01T19:59:11.634Z,33.97
2022-12-01T20:01:40.316Z,29.00
2022-12-01T20:04:09.009Z,26.77
2022-12-01T20:06:39.233Z,28.27
2022-12-01T20:09:11.698Z,26.60
2022-12-01T20:11:40.168Z,25.30
2022-12-01T20:14:08.652Z,28.73
2022-12-01T20:16:41.645Z,28.00
2022-12-01T20:19:18.295Z,27.57
2022-12-01T20:21:46.586Z,29.27
2022-12-01T20:24:18.585Z,26.77
2022-12-01T20:26:50.729Z,24.80
2022-12-01T20:29:21.833Z,25.87
2022-12-01T20:31:52.325Z,24.60
2022-12-01T20:34:25.394Z,26.10
2022-12-01T20:36:54.369Z,24.47
2022-12-01T20:39:24.413Z,26.90
2022-12-01T20:41:53.941Z,27.20
2022-12-01T20:44:23.415Z,30.13
2022-12-01T20:46:54.968Z,25.73
2022-12-01T20:49:23.653Z,24.70
2022-12-01T20:51:53.192Z,24.47
2022-12-01T20:54:28.812Z,26.23
2022-12-01T20:56:58.466Z,28.53
2022-12-01T20:59:27.812Z,27.30
2022-12-01T21:01:56.487Z,31.10
2022-12-01T21:04:24.922Z,31.33
2022-12-01T21:06:59.676Z,26.67
2022-12-01T21:09:29.801Z,28.20
2022-12-01T21:12:18.083Z,32.90
2022-12-01T21:14:54.684Z,29.67
2022-12-01T21:17:32.994Z,28.93
2022-12-01T21:20:11.614Z,30.17
2022-12-01T21:22:46.885Z,29.63
2022-12-01T21:25:20.400Z,27.20
2022-12-01T21:27:50.366Z,28.43
2022-12-01T21:30:20.825Z,31.90
2022-12-01T21:32:50.948Z,33.00
2022-12-01T21:35:22.020Z,28.00
2022-12-01T21:37:55.395Z,32.13
2022-12-01T21:40:26.875Z,35.77
2022-12-01T21:42:56.893Z,32.50
2022-12-01T21:45:29.168Z,34.10
2022-12-01T21:48:02.497Z,32.50
2022-12-01T21:50:32.755Z,32.50
2022-12-01T21:53:01.227Z,30.63
2022-12-01T21:55:36.105Z,32.23
2022-12-01T21:58:21.020Z,27.17
2022-12-01T22:00:52.300Z,29.60
2022-12-01T22:03:30.250Z,32.60
2022-12-01T22:06:28.202Z,31.07
2022-12-01T22:08:52.937Z,32.87
2022-12-01T22:11:24.173Z,28.50
2022-12-01T22:13:56.524Z,28.67
2022-12-01T22:16:30.797Z,28.03
2022-12-01T22:19:01.976Z,29.17
2022-12-01T22:21:38.034Z,36.43
2022-12-01T22:24:22.799Z,37.80
2022-12-01T22:27:01.125Z,31.93
2022-12-01T22:29:31.308Z,31.47
2022-12-01T22:32:41.311Z,33.20
2022-12-01T22:35:27.096Z,30.70
2022-12-01T22:38:00.142Z,28.10
2022-12-01T22:40:33.808Z,33.63
2022-12-01T22:43:35.217Z,30.43
2022-12-01T22:46:16.347Z,32.90
2022-12-01T22:48:46.882Z,34.70
2022-12-01T22:51:38.387Z,33.80
2022-12-01T22:54:27.402Z,35.93
2022-12-01T22:57:12.193Z,34.10
2022-12-01T22:59:44.146Z,29.20
2022-12-01T23:02:21.218Z,37.27
2022-12-01T23:04:52.892Z,33.40
2022-12-01T23:07:32.151Z,34.37
2022-12-01T23:10:12.874Z,35.00
2022-12-01T23:12:42.341Z,32.03
2022-12-01T23:15:31.133Z,38.80
2022-12-01T23:18:03.647Z,32.33
2022-12-01T23:20:34.414Z,35.60
2022-12-01T23:23:06.129Z,34.07
2022-12-01T23:25:37.078Z,34.40
2022-12-01T23:28:08.499Z,31.00
2022-12-01T23:30:42.302Z,29.37
2022-12-01T23:33:20.690Z,35.00
2022-12-01T23:35:54.894Z,34.50
2022-12-01T23:38:26.234Z,34.80
2022-12-01T23:40:59.572Z,37.23
2022-12-01T23:43:33.641Z,40.13
2022-12-01T23:46:09.636Z,37.57
2022-12-01T23:48:41.426Z,35.30
2022-12-01T23:51:17.374Z,34.50
2022-12-01T23:53:48.002Z,32.27
2022-12-01T23:56:20.837Z,37.37
2022-12-01T23:58:50.964Z,34.30
